Jacksonville, FL

8:35 PM EST on December 19, 2014 (GMT -0500)
Ortega Farms | Change Station
CLOSE
Current Station
Personal Weather Station
Location: Jacksonville, FL
Elevation: 23 ft
Nearby Weather Stations

Elev 23 ft 30.26 °N, 81.72 °W | Updated 7 minutes ago

Partly Cloudy
Partly Cloudy
58.4 °F
Feels Like 58.4 °F
N
3.0
Wind Variable Wind from NNW
Gusts 4.0 mph

Today
High -- | Low -- °F
--% Chance of Precip.
Yesterday
High -- | Low -- °F
Precip. -- in
7:17 AM 5:29 PM
Waning Crescent, 5% visible
Pressure 30.08 in
Visibility 10.0 miles
Clouds Few 18000 ft
Scattered Clouds 25000 ft
Dew Point 51 °F
Humidity 75%
Rainfall 0.00 in
Snow Depth Not available.
UV 0 out of 12
Pollen 2.60 out of 12
Air Quality Not available.
Flu Activity Not available.
METAR KNIP 200053Z 14007KT 10SM FEW180 SCT250 17/10 A3009 RMK AO2 SLP185 T01670100

More Conditions Fewer Conditions

Pressure 30.08 in
Visibility 10.0 miles
Clouds Few 18000 ft
Scattered Clouds 25000 ft
Dew Point 51 °F
Humidity 75%
Rainfall 0.00 in
Snow Depth Not available.
UV 0 out of 12
Pollen 2.60 out of 12
Air Quality Not available.
Flu Activity Not available.
METAR KNIP 200053Z 14007KT 10SM FEW180 SCT250 17/10 A3009 RMK AO2 SLP185 T01670100

More Conditions Fewer Conditions

10-Day Weather Forecast

Almanac

Astronomy

Dec. 19, 2014 Rise Set
Actual Time
Civil Twilight
Nautical Twilight
Astronomical Twilight
Moon
Length of Visible Light
Length of Day
Tomorrow will be .
, % of the Moon is Illuminated

Today's Extremes

State Highs State Lows

Community

WunderPhotos

Upload Photos

1,779,099 photos uploaded!

WunderBlogs® & News

Nearby

Air Quality

  Air Quality AQ Index Pollutant
Not available.

Snow Depth

Station Depth Elevation

Earthquake Activity

City Distance Mag. Time & Date
Minimum magnitude displayed is 2.5.

Coastal Water Temperatures

Place Temperature

Nearby Weather Stations